sensor_id;sensor_type;location;lat;lon;timestamp;P1;durP1;ratioP1;P2;durP2;ratioP2
24521;SDS011;12680;57.804;12.190;2022-11-02T00:01:52;24.48;;;3.33;;
24521;SDS011;12680;57.804;12.190;2022-11-02T00:04:19;14.32;;;3.72;;
24521;SDS011;12680;57.804;12.190;2022-11-02T00:06:46;12.60;;;3.20;;
24521;SDS011;12680;57.804;12.190;2022-11-02T00:09:14;15.40;;;3.28;;
24521;SDS011;12680;57.804;12.190;2022-11-02T00:11:41;15.88;;;3.20;;
24521;SDS011;12680;57.804;12.190;2022-11-02T00:14:08;15.07;;;2.83;;
24521;SDS011;12680;57.804;12.190;2022-11-02T00:16:36;16.98;;;2.72;;
24521;SDS011;12680;57.804;12.190;2022-11-02T00:19:05;18.58;;;3.05;;
24521;SDS011;12680;57.804;12.190;2022-11-02T00:21:34;14.85;;;2.72;;
24521;SDS011;12680;57.804;12.190;2022-11-02T00:24:02;13.75;;;2.97;;
24521;SDS011;12680;57.804;12.190;2022-11-02T00:26:32;23.50;;;4.00;;
24521;SDS011;12680;57.804;12.190;2022-11-02T00:29:02;18.50;;;3.33;;
24521;SDS011;12680;57.804;12.190;2022-11-02T00:31:30;20.25;;;3.08;;
24521;SDS011;12680;57.804;12.190;2022-11-02T00:33:58;13.48;;;2.70;;
24521;SDS011;12680;57.804;12.190;2022-11-02T00:36:25;13.80;;;3.03;;
24521;SDS011;12680;57.804;12.190;2022-11-02T00:38:53;23.23;;;3.28;;
24521;SDS011;12680;57.804;12.190;2022-11-02T00:41:20;18.23;;;3.22;;
24521;SDS011;12680;57.804;12.190;2022-11-02T00:43:48;12.57;;;2.97;;
24521;SDS011;12680;57.804;12.190;2022-11-02T00:46:15;16.92;;;3.00;;
24521;SDS011;12680;57.804;12.190;2022-11-02T00:48:42;16.60;;;3.35;;
24521;SDS011;12680;57.804;12.190;2022-11-02T00:51:09;17.92;;;3.00;;
24521;SDS011;12680;57.804;12.190;2022-11-02T00:53:36;21.45;;;4.03;;
24521;SDS011;12680;57.804;12.190;2022-11-02T00:56:03;19.42;;;3.13;;
24521;SDS011;12680;57.804;12.190;2022-11-02T00:58:31;16.95;;;3.47;;
24521;SDS011;12680;57.804;12.190;2022-11-02T01:01:02;12.10;;;2.63;;
24521;SDS011;12680;57.804;12.190;2022-11-02T01:03:30;20.27;;;3.40;;
24521;SDS011;12680;57.804;12.190;2022-11-02T01:05:57;14.50;;;2.97;;
24521;SDS011;12680;57.804;12.190;2022-11-02T01:08:25;18.40;;;2.78;;
24521;SDS011;12680;57.804;12.190;2022-11-02T01:10:52;16.38;;;3.03;;
24521;SDS011;12680;57.804;12.190;2022-11-02T01:13:19;14.57;;;2.63;;
24521;SDS011;12680;57.804;12.190;2022-11-02T01:15:46;18.10;;;2.75;;
24521;SDS011;12680;57.804;12.190;2022-11-02T01:18:13;17.77;;;3.08;;
24521;SDS011;12680;57.804;12.190;2022-11-02T01:20:40;14.05;;;2.97;;
24521;SDS011;12680;57.804;12.190;2022-11-02T01:23:08;17.25;;;2.67;;
24521;SDS011;12680;57.804;12.190;2022-11-02T01:25:35;14.55;;;2.45;;
24521;SDS011;12680;57.804;12.190;2022-11-02T01:28:02;18.00;;;3.13;;
24521;SDS011;12680;57.804;12.190;2022-11-02T01:30:29;16.15;;;2.70;;
24521;SDS011;12680;57.804;12.190;2022-11-02T01:32:56;12.63;;;2.50;;
24521;SDS011;12680;57.804;12.190;2022-11-02T01:35:24;20.25;;;2.83;;
24521;SDS011;12680;57.804;12.190;2022-11-02T01:37:51;15.50;;;3.75;;
24521;SDS011;12680;57.804;12.190;2022-11-02T01:40:18;16.17;;;2.90;;
24521;SDS011;12680;57.804;12.190;2022-11-02T01:42:45;14.23;;;2.90;;
24521;SDS011;12680;57.804;12.190;2022-11-02T01:45:13;19.42;;;3.78;;
24521;SDS011;12680;57.804;12.190;2022-11-02T01:47:41;12.43;;;2.70;;
24521;SDS011;12680;57.804;12.190;2022-11-02T01:50:22;11.13;;;2.40;;
24521;SDS011;12680;57.804;12.190;2022-11-02T01:52:53;9.13;;;2.30;;
24521;SDS011;12680;57.804;12.190;2022-11-02T01:55:21;16.35;;;3.20;;
24521;SDS011;12680;57.804;12.190;2022-11-02T01:57:52;20.83;;;2.90;;
24521;SDS011;12680;57.804;12.190;2022-11-02T02:00:23;15.13;;;3.75;;
24521;SDS011;12680;57.804;12.190;2022-11-02T02:02:52;13.15;;;2.60;;
24521;SDS011;12680;57.804;12.190;2022-11-02T02:05:23;17.48;;;2.80;;
24521;SDS011;12680;57.804;12.190;2022-11-02T02:07:51;16.20;;;3.40;;
24521;SDS011;12680;57.804;12.190;2022-11-02T02:10:22;15.05;;;2.67;;
24521;SDS011;12680;57.804;12.190;2022-11-02T02:12:49;12.77;;;2.90;;
24521;SDS011;12680;57.804;12.190;2022-11-02T02:15:17;16.80;;;2.95;;
24521;SDS011;12680;57.804;12.190;2022-11-02T02:18:00;20.85;;;3.13;;
24521;SDS011;12680;57.804;12.190;2022-11-02T02:23:43;20.23;;;2.75;;
24521;SDS011;12680;57.804;12.190;2022-11-02T02:29:23;15.90;;;2.92;;
24521;SDS011;12680;57.804;12.190;2022-11-02T02:34:43;14.57;;;3.40;;
24521;SDS011;12680;57.804;12.190;2022-11-02T02:37:24;16.02;;;2.95;;
24521;SDS011;12680;57.804;12.190;2022-11-02T02:40:04;23.33;;;3.55;;
24521;SDS011;12680;57.804;12.190;2022-11-02T02:42:53;14.55;;;3.10;;
24521;SDS011;12680;57.804;12.190;2022-11-02T02:47:58;13.13;;;3.17;;
24521;SDS011;12680;57.804;12.190;2022-11-02T02:50:34;15.73;;;2.83;;
24521;SDS011;12680;57.804;12.190;2022-11-02T02:53:06;12.50;;;2.65;;
24521;SDS011;12680;57.804;12.190;2022-11-02T02:55:36;16.67;;;2.38;;
24521;SDS011;12680;57.804;12.190;2022-11-02T02:58:08;12.35;;;2.15;;
24521;SDS011;12680;57.804;12.190;2022-11-02T03:00:41;19.60;;;3.17;;
24521;SDS011;12680;57.804;12.190;2022-11-02T03:03:15;16.10;;;2.70;;
24521;SDS011;12680;57.804;12.190;2022-11-02T03:06:08;16.10;;;2.90;;
24521;SDS011;12680;57.804;12.190;2022-11-02T03:09:31;13.98;;;2.72;;
24521;SDS011;12680;57.804;12.190;2022-11-02T03:16:58;15.70;;;3.45;;
24521;SDS011;12680;57.804;12.190;2022-11-02T03:19:40;17.40;;;2.65;;
24521;SDS011;12680;57.804;12.190;2022-11-02T03:22:33;9.82;;;2.40;;
24521;SDS011;12680;57.804;12.190;2022-11-02T03:25:27;17.08;;;2.97;;
24521;SDS011;12680;57.804;12.190;2022-11-02T03:30:30;17.92;;;3.28;;
24521;SDS011;12680;57.804;12.190;2022-11-02T03:33:18;15.98;;;2.78;;
24521;SDS011;12680;57.804;12.190;2022-11-02T03:35:53;22.13;;;3.10;;
24521;SDS011;12680;57.804;12.190;2022-11-02T03:38:24;16.52;;;3.33;;
24521;SDS011;12680;57.804;12.190;2022-11-02T03:41:03;16.77;;;2.92;;
24521;SDS011;12680;57.804;12.190;2022-11-02T03:43:32;15.00;;;3.00;;
24521;SDS011;12680;57.804;12.190;2022-11-02T03:46:02;16.13;;;3.55;;
24521;SDS011;12680;57.804;12.190;2022-11-02T03:48:38;12.27;;;2.60;;
24521;SDS011;12680;57.804;12.190;2022-11-02T03:51:10;8.90;;;2.28;;
24521;SDS011;12680;57.804;12.190;2022-11-02T03:56:20;15.35;;;3.58;;
24521;SDS011;12680;57.804;12.190;2022-11-02T03:58:57;15.98;;;3.47;;
24521;SDS011;12680;57.804;12.190;2022-11-02T04:01:25;16.15;;;2.97;;
24521;SDS011;12680;57.804;12.190;2022-11-02T04:03:54;15.43;;;3.03;;
24521;SDS011;12680;57.804;12.190;2022-11-02T04:06:22;13.18;;;3.30;;
24521;SDS011;12680;57.804;12.190;2022-11-02T04:08:51;18.92;;;3.33;;
24521;SDS011;12680;57.804;12.190;2022-11-02T04:11:18;14.20;;;3.78;;
24521;SDS011;12680;57.804;12.190;2022-11-02T04:14:04;14.75;;;2.80;;
24521;SDS011;12680;57.804;12.190;2022-11-02T04:16:50;18.65;;;3.58;;
24521;SDS011;12680;57.804;12.190;2022-11-02T04:19:40;18.45;;;3.35;;
24521;SDS011;12680;57.804;12.190;2022-11-02T04:22:14;12.52;;;2.80;;
24521;SDS011;12680;57.804;12.190;2022-11-02T04:24:59;19.55;;;3.03;;
24521;SDS011;12680;57.804;12.190;2022-11-02T04:27:45;13.27;;;2.55;;
24521;SDS011;12680;57.804;12.190;2022-11-02T04:30:15;12.98;;;2.67;;
24521;SDS011;12680;57.804;12.190;2022-11-02T04:32:44;21.60;;;3.30;;
24521;SDS011;12680;57.804;12.190;2022-11-02T04:35:31;16.42;;;2.88;;
24521;SDS011;12680;57.804;12.190;2022-11-02T04:37:59;15.02;;;2.88;;
24521;SDS011;12680;57.804;12.190;2022-11-02T04:40:45;16.30;;;3.83;;
24521;SDS011;12680;57.804;12.190;2022-11-02T04:43:13;14.75;;;3.33;;
24521;SDS011;12680;57.804;12.190;2022-11-02T04:45:40;14.68;;;2.67;;
24521;SDS011;12680;57.804;12.190;2022-11-02T04:48:07;18.83;;;2.85;;
24521;SDS011;12680;57.804;12.190;2022-11-02T04:50:35;18.85;;;3.30;;
24521;SDS011;12680;57.804;12.190;2022-11-02T04:53:03;12.02;;;2.80;;
24521;SDS011;12680;57.804;12.190;2022-11-02T04:55:32;13.02;;;2.70;;
24521;SDS011;12680;57.804;12.190;2022-11-02T04:58:00;12.65;;;2.70;;
24521;SDS011;12680;57.804;12.190;2022-11-02T05:00:28;16.25;;;2.80;;
24521;SDS011;12680;57.804;12.190;2022-11-02T05:02:55;13.63;;;3.20;;
24521;SDS011;12680;57.804;12.190;2022-11-02T05:05:26;10.88;;;2.60;;
24521;SDS011;12680;57.804;12.190;2022-11-02T05:07:53;12.25;;;3.20;;
24521;SDS011;12680;57.804;12.190;2022-11-02T05:10:20;12.77;;;2.92;;
24521;SDS011;12680;57.804;12.190;2022-11-02T05:12:47;16.17;;;3.15;;
24521;SDS011;12680;57.804;12.190;2022-11-02T05:15:21;17.35;;;3.53;;
24521;SDS011;12680;57.804;12.190;2022-11-02T05:17:48;17.23;;;3.63;;
24521;SDS011;12680;57.804;12.190;2022-11-02T05:20:15;13.35;;;3.40;;
24521;SDS011;12680;57.804;12.190;2022-11-02T05:22:42;18.92;;;2.90;;
24521;SDS011;12680;57.804;12.190;2022-11-02T05:25:10;20.67;;;3.85;;
24521;SDS011;12680;57.804;12.190;2022-11-02T05:27:37;18.95;;;4.03;;
24521;SDS011;12680;57.804;12.190;2022-11-02T05:30:05;15.15;;;2.95;;
24521;SDS011;12680;57.804;12.190;2022-11-02T05:32:32;22.90;;;3.83;;
24521;SDS011;12680;57.804;12.190;2022-11-02T05:34:59;17.40;;;3.35;;
24521;SDS011;12680;57.804;12.190;2022-11-02T05:37:27;9.82;;;3.13;;
24521;SDS011;12680;57.804;12.190;2022-11-02T05:39:54;14.60;;;3.58;;
24521;SDS011;12680;57.804;12.190;2022-11-02T05:42:21;14.13;;;3.25;;
24521;SDS011;12680;57.804;12.190;2022-11-02T05:44:48;12.18;;;2.80;;
24521;SDS011;12680;57.804;12.190;2022-11-02T05:47:15;16.17;;;3.40;;
24521;SDS011;12680;57.804;12.190;2022-11-02T05:49:42;12.48;;;3.33;;
24521;SDS011;12680;57.804;12.190;2022-11-02T05:52:09;17.63;;;3.53;;
24521;SDS011;12680;57.804;12.190;2022-11-02T05:54:37;15.23;;;3.53;;
24521;SDS011;12680;57.804;12.190;2022-11-02T05:57:04;13.70;;;2.75;;
24521;SDS011;12680;57.804;12.190;2022-11-02T05:59:31;12.68;;;3.30;;
24521;SDS011;12680;57.804;12.190;2022-11-02T06:01:58;11.82;;;2.95;;
24521;SDS011;12680;57.804;12.190;2022-11-02T06:04:25;14.57;;;4.00;;
24521;SDS011;12680;57.804;12.190;2022-11-02T06:06:52;15.32;;;3.60;;
24521;SDS011;12680;57.804;12.190;2022-11-02T06:09:20;15.45;;;2.67;;
24521;SDS011;12680;57.804;12.190;2022-11-02T06:11:47;22.35;;;4.32;;
24521;SDS011;12680;57.804;12.190;2022-11-02T06:14:14;15.18;;;3.60;;
24521;SDS011;12680;57.804;12.190;2022-11-02T06:16:41;19.10;;;2.95;;
24521;SDS011;12680;57.804;12.190;2022-11-02T06:19:08;10.95;;;3.10;;
24521;SDS011;12680;57.804;12.190;2022-11-02T06:21:35;10.27;;;2.67;;
24521;SDS011;12680;57.804;12.190;2022-11-02T06:24:03;10.45;;;3.28;;
24521;SDS011;12680;57.804;12.190;2022-11-02T06:26:30;11.60;;;3.05;;
24521;SDS011;12680;57.804;12.190;2022-11-02T06:28:57;15.40;;;3.58;;
24521;SDS011;12680;57.804;12.190;2022-11-02T06:31:24;11.80;;;2.92;;
24521;SDS011;12680;57.804;12.190;2022-11-02T06:33:52;12.90;;;2.85;;
24521;SDS011;12680;57.804;12.190;2022-11-02T06:36:19;11.23;;;3.17;;
24521;SDS011;12680;57.804;12.190;2022-11-02T06:38:46;13.55;;;2.83;;
24521;SDS011;12680;57.804;12.190;2022-11-02T06:41:13;16.85;;;3.97;;
24521;SDS011;12680;57.804;12.190;2022-11-02T06:43:40;13.13;;;3.20;;
24521;SDS011;12680;57.804;12.190;2022-11-02T06:46:07;13.70;;;3.13;;
24521;SDS011;12680;57.804;12.190;2022-11-02T06:48:34;13.02;;;3.08;;
24521;SDS011;12680;57.804;12.190;2022-11-02T06:51:02;10.55;;;3.03;;
24521;SDS011;12680;57.804;12.190;2022-11-02T06:53:30;18.95;;;3.33;;
24521;SDS011;12680;57.804;12.190;2022-11-02T06:55:58;12.77;;;3.45;;
24521;SDS011;12680;57.804;12.190;2022-11-02T06:58:26;10.48;;;3.30;;
24521;SDS011;12680;57.804;12.190;2022-11-02T07:01:00;12.48;;;3.17;;
24521;SDS011;12680;57.804;12.190;2022-11-02T07:03:29;16.15;;;3.58;;
24521;SDS011;12680;57.804;12.190;2022-11-02T07:05:56;9.38;;;3.17;;
24521;SDS011;12680;57.804;12.190;2022-11-02T07:08:24;15.20;;;3.58;;
24521;SDS011;12680;57.804;12.190;2022-11-02T07:10:52;12.20;;;2.97;;
24521;SDS011;12680;57.804;12.190;2022-11-02T07:13:20;14.23;;;2.78;;
24521;SDS011;12680;57.804;12.190;2022-11-02T07:15:49;13.63;;;4.38;;
24521;SDS011;12680;57.804;12.190;2022-11-02T07:18:18;14.20;;;2.90;;
24521;SDS011;12680;57.804;12.190;2022-11-02T07:20:45;13.18;;;3.20;;
24521;SDS011;12680;57.804;12.190;2022-11-02T07:23:13;15.90;;;3.60;;
24521;SDS011;12680;57.804;12.190;2022-11-02T07:25:40;16.70;;;2.80;;
24521;SDS011;12680;57.804;12.190;2022-11-02T07:28:07;15.57;;;3.47;;
24521;SDS011;12680;57.804;12.190;2022-11-02T07:30:34;12.57;;;3.50;;
24521;SDS011;12680;57.804;12.190;2022-11-02T07:33:01;6.70;;;2.47;;
24521;SDS011;12680;57.804;12.190;2022-11-02T07:35:29;14.48;;;3.20;;
24521;SDS011;12680;57.804;12.190;2022-11-02T07:37:57;14.23;;;3.15;;
24521;SDS011;12680;57.804;12.190;2022-11-02T07:40:25;10.50;;;3.28;;
24521;SDS011;12680;57.804;12.190;2022-11-02T07:42:54;10.18;;;3.33;;
24521;SDS011;12680;57.804;12.190;2022-11-02T07:45:21;9.25;;;3.10;;
24521;SDS011;12680;57.804;12.190;2022-11-02T07:47:49;9.68;;;3.17;;
24521;SDS011;12680;57.804;12.190;2022-11-02T07:50:18;12.20;;;3.42;;
24521;SDS011;12680;57.804;12.190;2022-11-02T07:52:50;11.48;;;2.97;;
24521;SDS011;12680;57.804;12.190;2022-11-02T07:55:19;10.63;;;2.90;;
24521;SDS011;12680;57.804;12.190;2022-11-02T07:57:58;8.32;;;2.80;;
24521;SDS011;12680;57.804;12.190;2022-11-02T08:00:28;7.47;;;2.60;;
24521;SDS011;12680;57.804;12.190;2022-11-02T08:02:58;10.10;;;2.75;;
24521;SDS011;12680;57.804;12.190;2022-11-02T08:05:28;8.27;;;2.83;;
24521;SDS011;12680;57.804;12.190;2022-11-02T08:07:56;7.93;;;3.13;;
24521;SDS011;12680;57.804;12.190;2022-11-02T08:10:24;6.13;;;2.15;;
24521;SDS011;12680;57.804;12.190;2022-11-02T08:12:52;7.10;;;2.50;;
24521;SDS011;12680;57.804;12.190;2022-11-02T08:15:20;6.93;;;2.40;;
24521;SDS011;12680;57.804;12.190;2022-11-02T08:17:57;9.60;;;1.85;;
24521;SDS011;12680;57.804;12.190;2022-11-02T08:20:33;4.15;;;2.15;;
24521;SDS011;12680;57.804;12.190;2022-11-02T08:23:01;5.95;;;2.00;;
24521;SDS011;12680;57.804;12.190;2022-11-02T08:25:30;6.38;;;1.77;;
24521;SDS011;12680;57.804;12.190;2022-11-02T08:27:58;5.32;;;2.08;;
24521;SDS011;12680;57.804;12.190;2022-11-02T08:30:27;6.78;;;2.22;;
24521;SDS011;12680;57.804;12.190;2022-11-02T08:32:55;6.68;;;2.17;;
24521;SDS011;12680;57.804;12.190;2022-11-02T08:35:29;8.52;;;2.17;;
24521;SDS011;12680;57.804;12.190;2022-11-02T08:37:56;5.82;;;2.03;;
24521;SDS011;12680;57.804;12.190;2022-11-02T08:40:25;9.43;;;3.08;;
24521;SDS011;12680;57.804;12.190;2022-11-02T08:43:00;8.63;;;2.28;;
24521;SDS011;12680;57.804;12.190;2022-11-02T08:45:29;6.88;;;2.40;;
24521;SDS011;12680;57.804;12.190;2022-11-02T08:48:17;15.48;;;2.97;;
24521;SDS011;12680;57.804;12.190;2022-11-02T08:50:44;14.88;;;3.47;;
24521;SDS011;12680;57.804;12.190;2022-11-02T08:53:13;9.13;;;3.03;;
24521;SDS011;12680;57.804;12.190;2022-11-02T08:55:40;8.82;;;3.20;;
24521;SDS011;12680;57.804;12.190;2022-11-02T08:58:07;14.88;;;3.92;;
24521;SDS011;12680;57.804;12.190;2022-11-02T09:00:35;12.40;;;4.45;;
24521;SDS011;12680;57.804;12.190;2022-11-02T09:03:09;9.23;;;3.10;;
24521;SDS011;12680;57.804;12.190;2022-11-02T09:05:40;9.45;;;3.75;;
24521;SDS011;12680;57.804;12.190;2022-11-02T09:10:44;11.77;;;3.42;;
24521;SDS011;12680;57.804;12.190;2022-11-02T09:13:13;9.90;;;3.53;;
24521;SDS011;12680;57.804;12.190;2022-11-02T09:15:43;13.63;;;3.58;;
24521;SDS011;12680;57.804;12.190;2022-11-02T09:18:10;8.93;;;3.45;;
24521;SDS011;12680;57.804;12.190;2022-11-02T09:20:37;11.23;;;3.13;;
24521;SDS011;12680;57.804;12.190;2022-11-02T09:23:04;13.60;;;3.53;;
24521;SDS011;12680;57.804;12.190;2022-11-02T09:25:32;11.02;;;3.17;;
24521;SDS011;12680;57.804;12.190;2022-11-02T09:27:59;10.18;;;3.05;;
24521;SDS011;12680;57.804;12.190;2022-11-02T09:30:26;10.90;;;2.70;;
24521;SDS011;12680;57.804;12.190;2022-11-02T09:32:57;12.90;;;2.88;;
24521;SDS011;12680;57.804;12.190;2022-11-02T09:35:25;11.60;;;2.97;;
24521;SDS011;12680;57.804;12.190;2022-11-02T09:37:54;7.72;;;2.67;;
24521;SDS011;12680;57.804;12.190;2022-11-02T09:40:26;8.27;;;2.70;;
24521;SDS011;12680;57.804;12.190;2022-11-02T09:45:45;9.77;;;2.50;;
24521;SDS011;12680;57.804;12.190;2022-11-02T09:48:21;7.32;;;2.13;;
24521;SDS011;12680;57.804;12.190;2022-11-02T09:51:30;12.75;;;3.15;;
24521;SDS011;12680;57.804;12.190;2022-11-02T09:56:41;11.20;;;2.80;;
24521;SDS011;12680;57.804;12.190;2022-11-02T10:04:13;11.23;;;2.67;;
24521;SDS011;12680;57.804;12.190;2022-11-02T10:07:33;8.45;;;2.70;;
24521;SDS011;12680;57.804;12.190;2022-11-02T10:10:09;8.93;;;2.50;;
24521;SDS011;12680;57.804;12.190;2022-11-02T10:15:26;9.63;;;2.37;;
24521;SDS011;12680;57.804;12.190;2022-11-02T10:18:00;12.63;;;2.60;;
24521;SDS011;12680;57.804;12.190;2022-11-02T10:20:32;9.35;;;2.67;;
24521;SDS011;12680;57.804;12.190;2022-11-02T10:23:35;12.77;;;3.00;;
24521;SDS011;12680;57.804;12.190;2022-11-02T10:26:06;11.73;;;2.90;;
24521;SDS011;12680;57.804;12.190;2022-11-02T10:28:45;7.28;;;3.30;;
24521;SDS011;12680;57.804;12.190;2022-11-02T10:31:18;14.52;;;3.40;;
24521;SDS011;12680;57.804;12.190;2022-11-02T10:33:51;12.88;;;3.38;;
24521;SDS011;12680;57.804;12.190;2022-11-02T10:44:57;12.65;;;3.80;;
24521;SDS011;12680;57.804;12.190;2022-11-02T10:47:43;7.85;;;3.20;;
24521;SDS011;12680;57.804;12.190;2022-11-02T10:53:12;12.07;;;2.72;;
24521;SDS011;12680;57.804;12.190;2022-11-02T10:56:15;15.95;;;3.15;;
24521;SDS011;12680;57.804;12.190;2022-11-02T11:01:29;9.20;;;2.65;;
24521;SDS011;12680;57.804;12.190;2022-11-02T11:06:36;13.07;;;3.38;;
24521;SDS011;12680;57.804;12.190;2022-11-02T11:09:18;11.48;;;2.47;;
24521;SDS011;12680;57.804;12.190;2022-11-02T11:12:11;11.02;;;2.50;;
24521;SDS011;12680;57.804;12.190;2022-11-02T11:14:53;8.68;;;2.28;;
24521;SDS011;12680;57.804;12.190;2022-11-02T11:17:43;15.30;;;2.95;;
24521;SDS011;12680;57.804;12.190;2022-11-02T11:23:08;11.88;;;2.40;;
24521;SDS011;12680;57.804;12.190;2022-11-02T11:25:52;14.02;;;2.83;;
24521;SDS011;12680;57.804;12.190;2022-11-02T11:33:45;8.88;;;2.63;;
24521;SDS011;12680;57.804;12.190;2022-11-02T11:38:53;8.30;;;2.28;;
24521;SDS011;12680;57.804;12.190;2022-11-02T11:41:24;15.52;;;3.08;;
24521;SDS011;12680;57.804;12.190;2022-11-02T11:43:51;11.63;;;2.58;;
24521;SDS011;12680;57.804;12.190;2022-11-02T11:46:19;7.68;;;1.95;;
24521;SDS011;12680;57.804;12.190;2022-11-02T11:48:50;6.07;;;1.95;;
24521;SDS011;12680;57.804;12.190;2022-11-02T11:51:27;13.02;;;1.90;;
24521;SDS011;12680;57.804;12.190;2022-11-02T11:54:13;7.55;;;1.95;;
24521;SDS011;12680;57.804;12.190;2022-11-02T11:56:46;9.40;;;1.85;;
24521;SDS011;12680;57.804;12.190;2022-11-02T12:02:22;9.95;;;1.73;;
24521;SDS011;12680;57.804;12.190;2022-11-02T12:04:50;10.27;;;1.52;;
24521;SDS011;12680;57.804;12.190;2022-11-02T12:10:13;8.32;;;1.80;;
24521;SDS011;12680;57.804;12.190;2022-11-02T12:16:11;4.00;;;1.17;;
24521;SDS011;12680;57.804;12.190;2022-11-02T12:22:04;6.03;;;1.42;;
24521;SDS011;12680;57.804;12.190;2022-11-02T12:35:49;8.48;;;1.05;;
24521;SDS011;12680;57.804;12.190;2022-11-02T12:41:59;5.05;;;0.90;;
24521;SDS011;12680;57.804;12.190;2022-11-02T12:44:32;5.35;;;1.10;;
24521;SDS011;12680;57.804;12.190;2022-11-02T12:56:05;4.43;;;1.10;;
24521;SDS011;12680;57.804;12.190;2022-11-02T12:58:39;3.75;;;1.00;;
24521;SDS011;12680;57.804;12.190;2022-11-02T13:01:13;3.63;;;0.60;;
24521;SDS011;12680;57.804;12.190;2022-11-02T13:06:44;3.67;;;0.70;;
24521;SDS011;12680;57.804;12.190;2022-11-02T13:09:21;3.05;;;0.80;;
24521;SDS011;12680;57.804;12.190;2022-11-02T13:12:04;1.58;;;0.68;;
24521;SDS011;12680;57.804;12.190;2022-11-02T13:14:38;3.85;;;0.70;;
24521;SDS011;12680;57.804;12.190;2022-11-02T13:20:31;4.35;;;0.70;;
24521;SDS011;12680;57.804;12.190;2022-11-02T13:25:57;2.90;;;0.65;;
24521;SDS011;12680;57.804;12.190;2022-11-02T13:28:40;6.60;;;1.55;;
24521;SDS011;12680;57.804;12.190;2022-11-02T13:31:16;3.40;;;0.70;;
24521;SDS011;12680;57.804;12.190;2022-11-02T13:33:54;3.33;;;0.80;;
24521;SDS011;12680;57.804;12.190;2022-11-02T13:36:25;5.80;;;0.70;;
24521;SDS011;12680;57.804;12.190;2022-11-02T13:39:04;6.65;;;0.80;;
24521;SDS011;12680;57.804;12.190;2022-11-02T13:44:48;4.63;;;0.68;;
24521;SDS011;12680;57.804;12.190;2022-11-02T13:50:26;5.32;;;0.65;;
24521;SDS011;12680;57.804;12.190;2022-11-02T13:52:59;5.03;;;0.80;;
24521;SDS011;12680;57.804;12.190;2022-11-02T13:55:40;3.33;;;0.57;;
24521;SDS011;12680;57.804;12.190;2022-11-02T13:58:22;2.35;;;0.85;;
24521;SDS011;12680;57.804;12.190;2022-11-02T14:00:58;1.83;;;0.60;;
24521;SDS011;12680;57.804;12.190;2022-11-02T14:03:29;6.43;;;0.73;;
24521;SDS011;12680;57.804;12.190;2022-11-02T14:06:26;6.80;;;1.05;;
24521;SDS011;12680;57.804;12.190;2022-11-02T14:08:56;5.55;;;0.90;;
24521;SDS011;12680;57.804;12.190;2022-11-02T14:11:44;3.22;;;0.90;;
24521;SDS011;12680;57.804;12.190;2022-11-02T14:14:14;3.63;;;0.50;;
24521;SDS011;12680;57.804;12.190;2022-11-02T14:27:26;4.57;;;1.00;;
24521;SDS011;12680;57.804;12.190;2022-11-02T14:29:54;7.10;;;0.95;;
24521;SDS011;12680;57.804;12.190;2022-11-02T14:32:26;3.63;;;1.13;;
24521;SDS011;12680;57.804;12.190;2022-11-02T14:46:43;5.60;;;0.88;;
24521;SDS011;12680;57.804;12.190;2022-11-02T14:49:16;5.18;;;1.05;;
24521;SDS011;12680;57.804;12.190;2022-11-02T14:51:57;5.60;;;1.05;;
24521;SDS011;12680;57.804;12.190;2022-11-02T14:54:51;6.10;;;1.30;;
24521;SDS011;12680;57.804;12.190;2022-11-02T14:57:31;7.03;;;0.88;;
24521;SDS011;12680;57.804;12.190;2022-11-02T15:00:15;4.35;;;1.20;;
24521;SDS011;12680;57.804;12.190;2022-11-02T15:02:43;5.13;;;1.10;;
24521;SDS011;12680;57.804;12.190;2022-11-02T15:10:53;4.85;;;1.30;;
24521;SDS011;12680;57.804;12.190;2022-11-02T15:13:22;3.35;;;0.80;;
24521;SDS011;12680;57.804;12.190;2022-11-02T15:23:46;3.65;;;1.17;;
24521;SDS011;12680;57.804;12.190;2022-11-02T15:26:59;6.85;;;0.98;;
24521;SDS011;12680;57.804;12.190;2022-11-02T15:31:53;3.35;;;0.77;;
24521;SDS011;12680;57.804;12.190;2022-11-02T15:34:33;5.22;;;1.10;;
24521;SDS011;12680;57.804;12.190;2022-11-02T15:37:05;6.07;;;0.80;;
24521;SDS011;12680;57.804;12.190;2022-11-02T15:39:34;12.27;;;1.23;;
24521;SDS011;12680;57.804;12.190;2022-11-02T15:42:02;7.63;;;1.63;;
24521;SDS011;12680;57.804;12.190;2022-11-02T15:50:34;10.68;;;1.33;;
24521;SDS011;12680;57.804;12.190;2022-11-02T16:03:58;7.63;;;1.48;;
24521;SDS011;12680;57.804;12.190;2022-11-02T16:06:33;4.93;;;1.15;;
24521;SDS011;12680;57.804;12.190;2022-11-02T16:09:02;7.60;;;1.80;;
24521;SDS011;12680;57.804;12.190;2022-11-02T16:12:22;5.32;;;1.65;;
24521;SDS011;12680;57.804;12.190;2022-11-02T16:14:51;6.25;;;2.67;;
24521;SDS011;12680;57.804;12.190;2022-11-02T16:17:36;6.68;;;1.50;;
24521;SDS011;12680;57.804;12.190;2022-11-02T16:22:59;3.42;;;1.05;;
24521;SDS011;12680;57.804;12.190;2022-11-02T16:33:54;5.53;;;1.10;;
24521;SDS011;12680;57.804;12.190;2022-11-02T16:36:26;3.35;;;1.13;;
24521;SDS011;12680;57.804;12.190;2022-11-02T16:41:30;2.67;;;1.02;;
24521;SDS011;12680;57.804;12.190;2022-11-02T16:44:09;3.10;;;0.98;;
24521;SDS011;12680;57.804;12.190;2022-11-02T16:46:48;4.00;;;1.20;;
24521;SDS011;12680;57.804;12.190;2022-11-02T16:49:19;3.63;;;1.17;;
24521;SDS011;12680;57.804;12.190;2022-11-02T16:51:57;5.80;;;1.92;;
24521;SDS011;12680;57.804;12.190;2022-11-02T16:57:11;7.32;;;1.80;;
24521;SDS011;12680;57.804;12.190;2022-11-02T16:59:50;6.70;;;2.00;;
24521;SDS011;12680;57.804;12.190;2022-11-02T17:02:36;4.30;;;1.92;;
24521;SDS011;12680;57.804;12.190;2022-11-02T17:05:12;3.83;;;1.88;;
24521;SDS011;12680;57.804;12.190;2022-11-02T17:07:46;8.82;;;2.00;;
24521;SDS011;12680;57.804;12.190;2022-11-02T17:10:24;7.53;;;1.23;;
24521;SDS011;12680;57.804;12.190;2022-11-02T17:12:53;7.47;;;1.43;;
24521;SDS011;12680;57.804;12.190;2022-11-02T17:15:22;7.00;;;1.70;;
24521;SDS011;12680;57.804;12.190;2022-11-02T17:18:13;5.03;;;1.60;;
24521;SDS011;12680;57.804;12.190;2022-11-02T17:21:14;5.68;;;1.48;;
24521;SDS011;12680;57.804;12.190;2022-11-02T17:31:30;3.53;;;1.20;;
24521;SDS011;12680;57.804;12.190;2022-11-02T17:34:07;7.05;;;1.38;;
24521;SDS011;12680;57.804;12.190;2022-11-02T17:36:47;8.18;;;1.67;;
24521;SDS011;12680;57.804;12.190;2022-11-02T17:39:16;7.93;;;1.75;;
24521;SDS011;12680;57.804;12.190;2022-11-02T17:41:51;5.18;;;1.63;;
24521;SDS011;12680;57.804;12.190;2022-11-02T17:44:38;8.30;;;1.67;;
24521;SDS011;12680;57.804;12.190;2022-11-02T17:47:11;7.95;;;1.95;;
24521;SDS011;12680;57.804;12.190;2022-11-02T17:49:41;8.60;;;1.40;;
24521;SDS011;12680;57.804;12.190;2022-11-02T17:52:11;7.03;;;1.58;;
24521;SDS011;12680;57.804;12.190;2022-11-02T17:54:41;9.88;;;1.23;;
24521;SDS011;12680;57.804;12.190;2022-11-02T17:57:12;9.48;;;1.63;;
24521;SDS011;12680;57.804;12.190;2022-11-02T18:02:10;8.30;;;1.80;;
24521;SDS011;12680;57.804;12.190;2022-11-02T18:04:39;13.48;;;1.58;;
24521;SDS011;12680;57.804;12.190;2022-11-02T18:07:06;6.90;;;1.88;;
24521;SDS011;12680;57.804;12.190;2022-11-02T18:09:33;9.60;;;1.80;;
24521;SDS011;12680;57.804;12.190;2022-11-02T18:12:00;9.18;;;1.92;;
24521;SDS011;12680;57.804;12.190;2022-11-02T18:14:27;8.27;;;1.77;;
24521;SDS011;12680;57.804;12.190;2022-11-02T18:16:55;7.75;;;1.85;;